sensor_id;sensor_type;location;lat;lon;timestamp;P1;durP1;ratioP1;P2;durP2;ratioP2
59649;SDS011;46162;57.568;25.814;2023-03-23T00:01:16;36.33;;;18.38;;
59649;SDS011;46162;57.568;25.814;2023-03-23T00:03:45;39.33;;;18.90;;
59649;SDS011;46162;57.568;25.814;2023-03-23T00:06:15;36.80;;;18.77;;
59649;SDS011;46162;57.568;25.814;2023-03-23T00:08:44;36.28;;;18.45;;
59649;SDS011;46162;57.568;25.814;2023-03-23T00:11:12;35.05;;;17.40;;
59649;SDS011;46162;57.568;25.814;2023-03-23T00:13:41;33.30;;;17.60;;
59649;SDS011;46162;57.568;25.814;2023-03-23T00:16:09;33.72;;;18.00;;
59649;SDS011;46162;57.568;25.814;2023-03-23T00:18:43;34.35;;;17.30;;
59649;SDS011;46162;57.568;25.814;2023-03-23T00:21:11;36.22;;;18.65;;
59649;SDS011;46162;57.568;25.814;2023-03-23T00:23:40;33.00;;;17.55;;
59649;SDS011;46162;57.568;25.814;2023-03-23T00:26:10;33.08;;;17.42;;
59649;SDS011;46162;57.568;25.814;2023-03-23T00:28:39;32.65;;;17.35;;
59649;SDS011;46162;57.568;25.814;2023-03-23T00:31:07;32.72;;;17.50;;
59649;SDS011;46162;57.568;25.814;2023-03-23T00:33:36;31.73;;;16.98;;
59649;SDS011;46162;57.568;25.814;2023-03-23T00:36:06;32.15;;;16.48;;
59649;SDS011;46162;57.568;25.814;2023-03-23T00:38:35;32.72;;;16.88;;
59649;SDS011;46162;57.568;25.814;2023-03-23T00:41:05;33.13;;;16.67;;
59649;SDS011;46162;57.568;25.814;2023-03-23T00:43:33;38.70;;;18.23;;
59649;SDS011;46162;57.568;25.814;2023-03-23T00:46:02;35.78;;;17.75;;
59649;SDS011;46162;57.568;25.814;2023-03-23T00:48:34;31.38;;;16.80;;
59649;SDS011;46162;57.568;25.814;2023-03-23T00:51:06;30.25;;;16.55;;
59649;SDS011;46162;57.568;25.814;2023-03-23T00:53:35;31.27;;;17.38;;
59649;SDS011;46162;57.568;25.814;2023-03-23T00:56:03;35.33;;;18.48;;
59649;SDS011;46162;57.568;25.814;2023-03-23T00:58:33;33.47;;;17.88;;
59649;SDS011;46162;57.568;25.814;2023-03-23T01:01:01;33.67;;;18.10;;
59649;SDS011;46162;57.568;25.814;2023-03-23T01:03:29;35.85;;;18.02;;
59649;SDS011;46162;57.568;25.814;2023-03-23T01:06:03;38.88;;;19.08;;
59649;SDS011;46162;57.568;25.814;2023-03-23T01:08:33;40.47;;;19.60;;
59649;SDS011;46162;57.568;25.814;2023-03-23T01:11:03;41.08;;;20.23;;
59649;SDS011;46162;57.568;25.814;2023-03-23T01:13:33;40.33;;;20.60;;
59649;SDS011;46162;57.568;25.814;2023-03-23T01:16:01;40.95;;;20.23;;
59649;SDS011;46162;57.568;25.814;2023-03-23T01:18:29;43.45;;;21.23;;
59649;SDS011;46162;57.568;25.814;2023-03-23T01:20:56;41.63;;;21.52;;
59649;SDS011;46162;57.568;25.814;2023-03-23T01:23:24;48.80;;;23.83;;
59649;SDS011;46162;57.568;25.814;2023-03-23T01:25:51;48.03;;;23.45;;
59649;SDS011;46162;57.568;25.814;2023-03-23T01:28:23;51.42;;;24.27;;
59649;SDS011;46162;57.568;25.814;2023-03-23T01:30:52;50.90;;;25.13;;
59649;SDS011;46162;57.568;25.814;2023-03-23T01:33:19;57.17;;;25.15;;
59649;SDS011;46162;57.568;25.814;2023-03-23T01:35:46;53.05;;;26.20;;
59649;SDS011;46162;57.568;25.814;2023-03-23T01:38:14;58.33;;;24.15;;
59649;SDS011;46162;57.568;25.814;2023-03-23T01:40:41;51.95;;;23.02;;
59649;SDS011;46162;57.568;25.814;2023-03-23T01:43:10;56.15;;;23.85;;
59649;SDS011;46162;57.568;25.814;2023-03-23T01:45:42;59.58;;;24.85;;
59649;SDS011;46162;57.568;25.814;2023-03-23T01:48:13;52.28;;;24.63;;
59649;SDS011;46162;57.568;25.814;2023-03-23T01:50:45;57.85;;;25.85;;
59649;SDS011;46162;57.568;25.814;2023-03-23T01:53:18;56.10;;;24.63;;
59649;SDS011;46162;57.568;25.814;2023-03-23T01:55:46;56.17;;;23.92;;
59649;SDS011;46162;57.568;25.814;2023-03-23T01:58:17;52.08;;;23.45;;
59649;SDS011;46162;57.568;25.814;2023-03-23T02:00:51;46.28;;;22.05;;
59649;SDS011;46162;57.568;25.814;2023-03-23T02:03:21;46.65;;;23.25;;
59649;SDS011;46162;57.568;25.814;2023-03-23T02:05:51;51.20;;;22.75;;
59649;SDS011;46162;57.568;25.814;2023-03-23T02:08:32;52.47;;;24.38;;
59649;SDS011;46162;57.568;25.814;2023-03-23T02:11:08;53.72;;;23.50;;
59649;SDS011;46162;57.568;25.814;2023-03-23T02:13:38;50.58;;;22.02;;
59649;SDS011;46162;57.568;25.814;2023-03-23T02:16:07;49.10;;;22.58;;
59649;SDS011;46162;57.568;25.814;2023-03-23T02:18:52;54.08;;;24.08;;
59649;SDS011;46162;57.568;25.814;2023-03-23T02:21:47;55.95;;;24.17;;
59649;SDS011;46162;57.568;25.814;2023-03-23T02:24:30;49.78;;;21.02;;
59649;SDS011;46162;57.568;25.814;2023-03-23T02:27:20;53.75;;;23.38;;
59649;SDS011;46162;57.568;25.814;2023-03-23T02:30:14;54.20;;;22.52;;
59649;SDS011;46162;57.568;25.814;2023-03-23T02:33:28;55.78;;;24.20;;
59649;SDS011;46162;57.568;25.814;2023-03-23T02:36:01;53.42;;;22.98;;
59649;SDS011;46162;57.568;25.814;2023-03-23T02:38:35;56.40;;;25.25;;
59649;SDS011;46162;57.568;25.814;2023-03-23T02:41:09;56.30;;;24.15;;
59649;SDS011;46162;57.568;25.814;2023-03-23T02:43:39;56.70;;;25.83;;
59649;SDS011;46162;57.568;25.814;2023-03-23T02:46:09;59.75;;;25.77;;
59649;SDS011;46162;57.568;25.814;2023-03-23T02:48:39;57.78;;;24.98;;
59649;SDS011;46162;57.568;25.814;2023-03-23T02:51:09;64.32;;;27.45;;
59649;SDS011;46162;57.568;25.814;2023-03-23T02:53:39;63.20;;;26.58;;
59649;SDS011;46162;57.568;25.814;2023-03-23T02:58:37;64.78;;;25.33;;
59649;SDS011;46162;57.568;25.814;2023-03-23T03:01:44;63.78;;;30.05;;
59649;SDS011;46162;57.568;25.814;2023-03-23T03:04:23;66.90;;;27.60;;
59649;SDS011;46162;57.568;25.814;2023-03-23T03:07:00;64.97;;;28.10;;
59649;SDS011;46162;57.568;25.814;2023-03-23T03:09:40;66.47;;;28.58;;
59649;SDS011;46162;57.568;25.814;2023-03-23T03:12:15;67.80;;;29.25;;
59649;SDS011;46162;57.568;25.814;2023-03-23T03:14:57;67.88;;;29.33;;
59649;SDS011;46162;57.568;25.814;2023-03-23T03:17:32;64.35;;;27.98;;
59649;SDS011;46162;57.568;25.814;2023-03-23T03:20:07;70.05;;;30.00;;
59649;SDS011;46162;57.568;25.814;2023-03-23T03:22:38;67.90;;;30.38;;
59649;SDS011;46162;57.568;25.814;2023-03-23T03:25:09;72.68;;;31.42;;
59649;SDS011;46162;57.568;25.814;2023-03-23T03:27:40;73.68;;;30.55;;
59649;SDS011;46162;57.568;25.814;2023-03-23T03:30:16;70.22;;;29.23;;
59649;SDS011;46162;57.568;25.814;2023-03-23T03:32:47;70.85;;;29.50;;
59649;SDS011;46162;57.568;25.814;2023-03-23T03:35:22;62.58;;;28.75;;
59649;SDS011;46162;57.568;25.814;2023-03-23T03:40:20;65.53;;;27.10;;
59649;SDS011;46162;57.568;25.814;2023-03-23T03:42:49;66.72;;;29.15;;
59649;SDS011;46162;57.568;25.814;2023-03-23T03:45:18;65.03;;;29.58;;
59649;SDS011;46162;57.568;25.814;2023-03-23T03:47:46;70.90;;;30.70;;
59649;SDS011;46162;57.568;25.814;2023-03-23T03:50:15;74.13;;;29.70;;
59649;SDS011;46162;57.568;25.814;2023-03-23T03:52:44;72.43;;;30.33;;
59649;SDS011;46162;57.568;25.814;2023-03-23T03:55:12;69.72;;;29.83;;
59649;SDS011;46162;57.568;25.814;2023-03-23T03:57:43;70.88;;;29.38;;
59649;SDS011;46162;57.568;25.814;2023-03-23T04:00:11;67.53;;;29.38;;
59649;SDS011;46162;57.568;25.814;2023-03-23T04:02:41;75.10;;;29.75;;
59649;SDS011;46162;57.568;25.814;2023-03-23T04:05:09;64.97;;;29.83;;
59649;SDS011;46162;57.568;25.814;2023-03-23T04:07:38;71.68;;;31.17;;
59649;SDS011;46162;57.568;25.814;2023-03-23T04:10:10;71.53;;;30.38;;
59649;SDS011;46162;57.568;25.814;2023-03-23T04:12:41;63.45;;;29.20;;
59649;SDS011;46162;57.568;25.814;2023-03-23T04:15:27;68.03;;;31.02;;
59649;SDS011;46162;57.568;25.814;2023-03-23T04:17:54;65.95;;;28.85;;
59649;SDS011;46162;57.568;25.814;2023-03-23T04:20:23;63.88;;;29.17;;
59649;SDS011;46162;57.568;25.814;2023-03-23T04:22:52;70.65;;;29.85;;
59649;SDS011;46162;57.568;25.814;2023-03-23T04:25:24;67.63;;;30.42;;
59649;SDS011;46162;57.568;25.814;2023-03-23T04:27:55;62.88;;;28.98;;
59649;SDS011;46162;57.568;25.814;2023-03-23T04:30:29;61.30;;;29.58;;
59649;SDS011;46162;57.568;25.814;2023-03-23T04:33:06;61.80;;;28.65;;
59649;SDS011;46162;57.568;25.814;2023-03-23T04:35:34;64.20;;;29.77;;
59649;SDS011;46162;57.568;25.814;2023-03-23T04:38:08;63.45;;;29.17;;
59649;SDS011;46162;57.568;25.814;2023-03-23T04:40:39;62.78;;;28.05;;
59649;SDS011;46162;57.568;25.814;2023-03-23T04:43:16;64.65;;;30.83;;
59649;SDS011;46162;57.568;25.814;2023-03-23T04:45:53;59.97;;;28.50;;
59649;SDS011;46162;57.568;25.814;2023-03-23T04:48:24;61.60;;;28.52;;
59649;SDS011;46162;57.568;25.814;2023-03-23T04:51:01;56.28;;;28.08;;
59649;SDS011;46162;57.568;25.814;2023-03-23T04:53:30;64.35;;;29.80;;
59649;SDS011;46162;57.568;25.814;2023-03-23T04:56:00;68.60;;;31.15;;
59649;SDS011;46162;57.568;25.814;2023-03-23T04:58:33;58.63;;;29.45;;
59649;SDS011;46162;57.568;25.814;2023-03-23T05:01:33;60.33;;;28.38;;
59649;SDS011;46162;57.568;25.814;2023-03-23T05:04:28;59.63;;;27.90;;
59649;SDS011;46162;57.568;25.814;2023-03-23T05:07:02;59.33;;;29.20;;
59649;SDS011;46162;57.568;25.814;2023-03-23T05:09:32;53.50;;;28.50;;
59649;SDS011;46162;57.568;25.814;2023-03-23T05:12:06;58.55;;;28.42;;
59649;SDS011;46162;57.568;25.814;2023-03-23T05:14:47;61.72;;;29.40;;
59649;SDS011;46162;57.568;25.814;2023-03-23T05:19:48;59.65;;;29.50;;
59649;SDS011;46162;57.568;25.814;2023-03-23T05:22:34;59.67;;;30.48;;
59649;SDS011;46162;57.568;25.814;2023-03-23T05:25:04;64.47;;;31.67;;
59649;SDS011;46162;57.568;25.814;2023-03-23T05:27:38;64.88;;;31.77;;
59649;SDS011;46162;57.568;25.814;2023-03-23T05:30:20;62.47;;;30.70;;
59649;SDS011;46162;57.568;25.814;2023-03-23T05:32:48;63.00;;;30.27;;
59649;SDS011;46162;57.568;25.814;2023-03-23T05:35:34;60.25;;;29.38;;
59649;SDS011;46162;57.568;25.814;2023-03-23T05:38:02;56.53;;;28.55;;
59649;SDS011;46162;57.568;25.814;2023-03-23T05:40:30;60.83;;;29.90;;
59649;SDS011;46162;57.568;25.814;2023-03-23T05:43:06;54.38;;;28.95;;
59649;SDS011;46162;57.568;25.814;2023-03-23T05:45:52;55.88;;;29.73;;
59649;SDS011;46162;57.568;25.814;2023-03-23T05:48:20;61.97;;;29.52;;
59649;SDS011;46162;57.568;25.814;2023-03-23T05:50:48;55.03;;;29.33;;
59649;SDS011;46162;57.568;25.814;2023-03-23T05:53:17;57.17;;;29.40;;
59649;SDS011;46162;57.568;25.814;2023-03-23T05:55:45;57.33;;;28.95;;
59649;SDS011;46162;57.568;25.814;2023-03-23T06:00:55;54.47;;;26.83;;
59649;SDS011;46162;57.568;25.814;2023-03-23T06:03:27;52.83;;;29.05;;
59649;SDS011;46162;57.568;25.814;2023-03-23T06:06:03;59.85;;;31.38;;
59649;SDS011;46162;57.568;25.814;2023-03-23T06:08:45;61.47;;;29.77;;
59649;SDS011;46162;57.568;25.814;2023-03-23T06:11:14;63.20;;;30.88;;
59649;SDS011;46162;57.568;25.814;2023-03-23T06:13:53;65.05;;;31.10;;
59649;SDS011;46162;57.568;25.814;2023-03-23T06:16:20;62.97;;;30.65;;
59649;SDS011;46162;57.568;25.814;2023-03-23T06:18:54;59.58;;;29.50;;
59649;SDS011;46162;57.568;25.814;2023-03-23T06:21:35;65.15;;;29.98;;
59649;SDS011;46162;57.568;25.814;2023-03-23T06:24:25;69.47;;;32.40;;
59649;SDS011;46162;57.568;25.814;2023-03-23T06:26:53;69.82;;;32.22;;
59649;SDS011;46162;57.568;25.814;2023-03-23T06:29:23;70.97;;;32.60;;
59649;SDS011;46162;57.568;25.814;2023-03-23T06:31:54;70.38;;;33.63;;
59649;SDS011;46162;57.568;25.814;2023-03-23T06:34:27;75.10;;;34.55;;
59649;SDS011;46162;57.568;25.814;2023-03-23T06:37:15;75.28;;;34.38;;
59649;SDS011;46162;57.568;25.814;2023-03-23T06:40:02;70.30;;;32.55;;
59649;SDS011;46162;57.568;25.814;2023-03-23T06:42:40;76.30;;;34.92;;
59649;SDS011;46162;57.568;25.814;2023-03-23T06:45:27;71.70;;;32.45;;
59649;SDS011;46162;57.568;25.814;2023-03-23T06:48:27;66.65;;;32.63;;
59649;SDS011;46162;57.568;25.814;2023-03-23T06:50:55;69.65;;;33.35;;
59649;SDS011;46162;57.568;25.814;2023-03-23T06:53:26;71.57;;;32.92;;
59649;SDS011;46162;57.568;25.814;2023-03-23T06:55:57;67.85;;;33.28;;
59649;SDS011;46162;57.568;25.814;2023-03-23T06:58:25;69.63;;;33.05;;
59649;SDS011;46162;57.568;25.814;2023-03-23T07:00:55;71.63;;;34.38;;
59649;SDS011;46162;57.568;25.814;2023-03-23T07:03:31;71.45;;;34.25;;
59649;SDS011;46162;57.568;25.814;2023-03-23T07:05:59;72.60;;;33.33;;
59649;SDS011;46162;57.568;25.814;2023-03-23T07:08:31;68.20;;;32.90;;
59649;SDS011;46162;57.568;25.814;2023-03-23T07:10:59;69.07;;;35.10;;
59649;SDS011;46162;57.568;25.814;2023-03-23T07:13:28;70.93;;;34.65;;
59649;SDS011;46162;57.568;25.814;2023-03-23T07:16:00;73.47;;;33.10;;
59649;SDS011;46162;57.568;25.814;2023-03-23T07:18:28;70.90;;;33.35;;
59649;SDS011;46162;57.568;25.814;2023-03-23T07:20:58;71.85;;;36.28;;
59649;SDS011;46162;57.568;25.814;2023-03-23T07:23:29;69.88;;;32.90;;
59649;SDS011;46162;57.568;25.814;2023-03-23T07:26:05;66.68;;;33.45;;
59649;SDS011;46162;57.568;25.814;2023-03-23T07:28:40;73.03;;;34.80;;
59649;SDS011;46162;57.568;25.814;2023-03-23T07:31:22;66.70;;;33.83;;
59649;SDS011;46162;57.568;25.814;2023-03-23T07:33:50;70.85;;;34.60;;
59649;SDS011;46162;57.568;25.814;2023-03-23T07:36:18;72.30;;;35.85;;
59649;SDS011;46162;57.568;25.814;2023-03-23T07:38:46;72.38;;;34.70;;
59649;SDS011;46162;57.568;25.814;2023-03-23T07:41:15;75.30;;;34.50;;
59649;SDS011;46162;57.568;25.814;2023-03-23T07:43:43;69.00;;;35.25;;
59649;SDS011;46162;57.568;25.814;2023-03-23T07:46:34;75.55;;;35.30;;
59649;SDS011;46162;57.568;25.814;2023-03-23T07:49:09;76.10;;;36.58;;
59649;SDS011;46162;57.568;25.814;2023-03-23T07:51:43;78.90;;;37.33;;
59649;SDS011;46162;57.568;25.814;2023-03-23T07:54:12;81.18;;;37.65;;
59649;SDS011;46162;57.568;25.814;2023-03-23T07:56:53;75.78;;;36.05;;
59649;SDS011;46162;57.568;25.814;2023-03-23T07:59:24;75.30;;;36.42;;
59649;SDS011;46162;57.568;25.814;2023-03-23T08:01:54;73.30;;;35.40;;
59649;SDS011;46162;57.568;25.814;2023-03-23T08:04:44;75.07;;;36.50;;
59649;SDS011;46162;57.568;25.814;2023-03-23T08:07:36;80.80;;;34.47;;
59649;SDS011;46162;57.568;25.814;2023-03-23T08:10:13;70.88;;;33.90;;
59649;SDS011;46162;57.568;25.814;2023-03-23T08:12:43;72.93;;;34.15;;
59649;SDS011;46162;57.568;25.814;2023-03-23T08:15:30;64.15;;;31.70;;
59649;SDS011;46162;57.568;25.814;2023-03-23T08:18:22;69.07;;;32.15;;
59649;SDS011;46162;57.568;25.814;2023-03-23T08:21:23;70.03;;;33.28;;
59649;SDS011;46162;57.568;25.814;2023-03-23T08:24:10;75.00;;;32.55;;
59649;SDS011;46162;57.568;25.814;2023-03-23T08:27:02;69.25;;;32.63;;
59649;SDS011;46162;57.568;25.814;2023-03-23T08:29:34;71.90;;;32.28;;
59649;SDS011;46162;57.568;25.814;2023-03-23T08:32:06;69.88;;;33.63;;
59649;SDS011;46162;57.568;25.814;2023-03-23T08:35:14;59.90;;;29.85;;
59649;SDS011;46162;57.568;25.814;2023-03-23T08:38:03;57.00;;;28.73;;
59649;SDS011;46162;57.568;25.814;2023-03-23T08:40:47;59.25;;;29.48;;
59649;SDS011;46162;57.568;25.814;2023-03-23T08:43:18;52.33;;;27.77;;
59649;SDS011;46162;57.568;25.814;2023-03-23T08:46:05;48.83;;;26.50;;
59649;SDS011;46162;57.568;25.814;2023-03-23T08:49:08;54.42;;;27.70;;
59649;SDS011;46162;57.568;25.814;2023-03-23T08:52:16;52.90;;;27.73;;
59649;SDS011;46162;57.568;25.814;2023-03-23T08:54:54;53.92;;;26.95;;
59649;SDS011;46162;57.568;25.814;2023-03-23T08:57:31;48.70;;;26.63;;
59649;SDS011;46162;57.568;25.814;2023-03-23T09:00:26;51.60;;;27.52;;
59649;SDS011;46162;57.568;25.814;2023-03-23T09:03:01;52.25;;;27.42;;
59649;SDS011;46162;57.568;25.814;2023-03-23T09:05:53;50.88;;;25.92;;
59649;SDS011;46162;57.568;25.814;2023-03-23T09:08:44;49.13;;;27.08;;
59649;SDS011;46162;57.568;25.814;2023-03-23T09:11:12;49.63;;;26.90;;
59649;SDS011;46162;57.568;25.814;2023-03-23T09:13:39;50.78;;;27.45;;
59649;SDS011;46162;57.568;25.814;2023-03-23T09:16:07;49.28;;;27.38;;
59649;SDS011;46162;57.568;25.814;2023-03-23T09:18:35;49.35;;;27.02;;
59649;SDS011;46162;57.568;25.814;2023-03-23T09:21:03;48.95;;;27.15;;
59649;SDS011;46162;57.568;25.814;2023-03-23T09:23:32;52.53;;;28.13;;
59649;SDS011;46162;57.568;25.814;2023-03-23T09:26:01;48.80;;;28.35;;
59649;SDS011;46162;57.568;25.814;2023-03-23T09:28:30;49.85;;;27.40;;
59649;SDS011;46162;57.568;25.814;2023-03-23T09:30:58;54.25;;;27.60;;
59649;SDS011;46162;57.568;25.814;2023-03-23T09:33:27;58.42;;;30.15;;
59649;SDS011;46162;57.568;25.814;2023-03-23T09:35:59;57.25;;;30.38;;
59649;SDS011;46162;57.568;25.814;2023-03-23T09:38:28;56.00;;;30.55;;
59649;SDS011;46162;57.568;25.814;2023-03-23T09:41:03;59.63;;;29.67;;
59649;SDS011;46162;57.568;25.814;2023-03-23T09:43:45;57.20;;;29.38;;
59649;SDS011;46162;57.568;25.814;2023-03-23T09:46:26;53.20;;;28.63;;
59649;SDS011;46162;57.568;25.814;2023-03-23T09:52:06;58.25;;;29.92;;
59649;SDS011;46162;57.568;25.814;2023-03-23T09:54:39;51.95;;;29.23;;
59649;SDS011;46162;57.568;25.814;2023-03-23T09:57:12;50.70;;;28.38;;
59649;SDS011;46162;57.568;25.814;2023-03-23T09:59:46;56.88;;;28.15;;
59649;SDS011;46162;57.568;25.814;2023-03-23T10:02:19;51.55;;;27.05;;
59649;SDS011;46162;57.568;25.814;2023-03-23T10:04:54;45.65;;;25.05;;
59649;SDS011;46162;57.568;25.814;2023-03-23T10:07:24;48.53;;;24.57;;
59649;SDS011;46162;57.568;25.814;2023-03-23T10:09:54;43.10;;;22.90;;
59649;SDS011;46162;57.568;25.814;2023-03-23T10:12:27;39.38;;;21.98;;
59649;SDS011;46162;57.568;25.814;2023-03-23T10:15:04;39.88;;;21.88;;
59649;SDS011;46162;57.568;25.814;2023-03-23T10:17:39;39.97;;;23.27;;
59649;SDS011;46162;57.568;25.814;2023-03-23T10:20:17;35.13;;;20.17;;
59649;SDS011;46162;57.568;25.814;2023-03-23T10:22:51;34.08;;;19.33;;
59649;SDS011;46162;57.568;25.814;2023-03-23T10:25:24;37.05;;;21.83;;
59649;SDS011;46162;57.568;25.814;2023-03-23T10:27:58;30.70;;;19.67;;
59649;SDS011;46162;57.568;25.814;2023-03-23T10:30:29;34.10;;;19.70;;
59649;SDS011;46162;57.568;25.814;2023-03-23T10:33:02;29.25;;;18.67;;
59649;SDS011;46162;57.568;25.814;2023-03-23T10:35:34;31.02;;;20.60;;
59649;SDS011;46162;57.568;25.814;2023-03-23T10:38:11;31.33;;;18.80;;
59649;SDS011;46162;57.568;25.814;2023-03-23T10:40:45;31.02;;;19.20;;
59649;SDS011;46162;57.568;25.814;2023-03-23T10:43:18;30.95;;;19.38;;
59649;SDS011;46162;57.568;25.814;2023-03-23T10:45:47;30.63;;;20.30;;
59649;SDS011;46162;57.568;25.814;2023-03-23T10:48:23;34.70;;;20.30;;
59649;SDS011;46162;57.568;25.814;2023-03-23T10:50:55;32.30;;;19.20;;
59649;SDS011;46162;57.568;25.814;2023-03-23T10:53:28;30.00;;;18.67;;
59649;SDS011;46162;57.568;25.814;2023-03-23T10:55:59;27.58;;;17.27;;
59649;SDS011;46162;57.568;25.814;2023-03-23T10:58:28;31.10;;;18.52;;
59649;SDS011;46162;57.568;25.814;2023-03-23T11:00:57;29.35;;;17.67;;
59649;SDS011;46162;57.568;25.814;2023-03-23T11:03:35;27.40;;;18.48;;
59649;SDS011;46162;57.568;25.814;2023-03-23T11:08:36;26.92;;;16.88;;
59649;SDS011;46162;57.568;25.814;2023-03-23T11:11:15;28.33;;;18.00;;
59649;SDS011;46162;57.568;25.814;2023-03-23T11:13:47;29.13;;;18.42;;
59649;SDS011;46162;57.568;25.814;2023-03-23T11:16:23;26.48;;;17.60;;
59649;SDS011;46162;57.568;25.814;2023-03-23T11:18:52;27.33;;;18.48;;
59649;SDS011;46162;57.568;25.814;2023-03-23T11:21:20;27.05;;;16.90;;
59649;SDS011;46162;57.568;25.814;2023-03-23T11:23:50;26.90;;;18.05;;
59649;SDS011;46162;57.568;25.814;2023-03-23T11:26:20;26.15;;;18.40;;
59649;SDS011;46162;57.568;25.814;2023-03-23T11:28:52;28.58;;;17.45;;
59649;SDS011;46162;57.568;25.814;2023-03-23T11:31:24;25.40;;;16.75;;
59649;SDS011;46162;57.568;25.814;2023-03-23T11:33:59;27.55;;;17.92;;
59649;SDS011;46162;57.568;25.814;2023-03-23T11:36:30;29.67;;;18.17;;
59649;SDS011;46162;57.568;25.814;2023-03-23T11:39:00;29.55;;;19.23;;
59649;SDS011;46162;57.568;25.814;2023-03-23T11:53:49;26.83;;;19.25;;
59649;SDS011;46162;57.568;25.814;2023-03-23T11:56:23;30.17;;;19.00;;
59649;SDS011;46162;57.568;25.814;2023-03-23T11:58:53;30.90;;;19.80;;
59649;SDS011;46162;57.568;25.814;2023-03-23T12:01:25;29.75;;;18.92;;
59649;SDS011;46162;57.568;25.814;2023-03-23T12:07:05;30.60;;;19.75;;
59649;SDS011;46162;57.568;25.814;2023-03-23T12:09:47;27.70;;;17.90;;
59649;SDS011;46162;57.568;25.814;2023-03-23T12:12:21;28.00;;;17.73;;
59649;SDS011;46162;57.568;25.814;2023-03-23T12:14:59;25.52;;;16.55;;
59649;SDS011;46162;57.568;25.814;2023-03-23T12:17:37;28.63;;;17.90;;
59649;SDS011;46162;57.568;25.814;2023-03-23T12:20:18;25.73;;;18.45;;
59649;SDS011;46162;57.568;25.814;2023-03-23T12:22:59;27.70;;;18.38;;
59649;SDS011;46162;57.568;25.814;2023-03-23T12:25:46;32.17;;;18.77;;
59649;SDS011;46162;57.568;25.814;2023-03-23T12:28:31;27.15;;;17.13;;
59649;SDS011;46162;57.568;25.814;2023-03-23T12:31:08;27.35;;;17.75;;
59649;SDS011;46162;57.568;25.814;2023-03-23T12:33:45;25.27;;;17.20;;
59649;SDS011;46162;57.568;25.814;2023-03-23T12:36:24;25.58;;;17.23;;
59649;SDS011;46162;57.568;25.814;2023-03-23T12:42:16;24.75;;;15.77;;
59649;SDS011;46162;57.568;25.814;2023-03-23T12:44:52;24.70;;;16.23;;
59649;SDS011;46162;57.568;25.814;2023-03-23T12:47:23;22.40;;;15.27;;
59649;SDS011;46162;57.568;25.814;2023-03-23T12:50:03;24.40;;;15.57;;
59649;SDS011;46162;57.568;25.814;2023-03-23T12:52:37;25.45;;;15.18;;
59649;SDS011;46162;57.568;25.814;2023-03-23T12:55:14;22.52;;;14.55;;
59649;SDS011;46162;57.568;25.814;2023-03-23T12:57:48;21.38;;;14.77;;
59649;SDS011;46162;57.568;25.814;2023-03-23T13:00:20;25.83;;;15.57;;
59649;SDS011;46162;57.568;25.814;2023-03-23T13:02:53;24.63;;;15.15;;
59649;SDS011;46162;57.568;25.814;2023-03-23T13:05:27;26.73;;;15.30;;
59649;SDS011;46162;57.568;25.814;2023-03-23T13:08:02;22.92;;;15.68;;
59649;SDS011;46162;57.568;25.814;2023-03-23T13:10:33;23.77;;;15.40;;
59649;SDS011;46162;57.568;25.814;2023-03-23T13:13:13;24.02;;;15.73;;
59649;SDS011;46162;57.568;25.814;2023-03-23T13:15:56;21.15;;;15.57;;
59649;SDS011;46162;57.568;25.814;2023-03-23T13:18:32;26.65;;;15.65;;
59649;SDS011;46162;57.568;25.814;2023-03-23T13:21:09;23.20;;;15.73;;
59649;SDS011;46162;57.568;25.814;2023-03-23T13:23:43;23.92;;;16.05;;
59649;SDS011;46162;57.568;25.814;2023-03-23T13:28:54;24.83;;;16.02;;
59649;SDS011;46162;57.568;25.814;2023-03-23T13:31:25;27.45;;;18.27;;
59649;SDS011;46162;57.568;25.814;2023-03-23T13:34:03;29.58;;;18.75;;
59649;SDS011;46162;57.568;25.814;2023-03-23T13:36:34;32.58;;;19.77;;
59649;SDS011;46162;57.568;25.814;2023-03-23T13:39:03;27.85;;;18.52;;
59649;SDS011;46162;57.568;25.814;2023-03-23T13:41:44;30.13;;;18.75;;
59649;SDS011;46162;57.568;25.814;2023-03-23T13:44:17;37.85;;;21.63;;
59649;SDS011;46162;57.568;25.814;2023-03-23T13:46:53;37.10;;;22.17;;
59649;SDS011;46162;57.568;25.814;2023-03-23T13:49:23;31.52;;;19.50;;
59649;SDS011;46162;57.568;25.814;2023-03-23T13:52:00;36.22;;;22.00;;
59649;SDS011;46162;57.568;25.814;2023-03-23T13:54:39;34.17;;;20.63;;
59649;SDS011;46162;57.568;25.814;2023-03-23T13:57:23;38.92;;;24.35;;
59649;SDS011;46162;57.568;25.814;2023-03-23T14:03:03;35.03;;;21.58;;
59649;SDS011;46162;57.568;25.814;2023-03-23T14:05:38;36.58;;;23.33;;
59649;SDS011;46162;57.568;25.814;2023-03-23T14:08:11;36.88;;;23.85;;
59649;SDS011;46162;57.568;25.814;2023-03-23T14:10:41;36.15;;;24.17;;
59649;SDS011;46162;57.568;25.814;2023-03-23T14:13:14;35.90;;;22.08;;
59649;SDS011;46162;57.568;25.814;2023-03-23T14:15:53;32.88;;;19.83;;
59649;SDS011;46162;57.568;25.814;2023-03-23T14:18:25;37.38;;;24.17;;
59649;SDS011;46162;57.568;25.814;2023-03-23T14:20:57;34.55;;;24.58;;
59649;SDS011;46162;57.568;25.814;2023-03-23T14:23:25;33.28;;;21.58;;
59649;SDS011;46162;57.568;25.814;2023-03-23T14:25:57;29.33;;;21.55;;
59649;SDS011;46162;57.568;25.814;2023-03-23T14:28:36;29.02;;;19.98;;
59649;SDS011;46162;57.568;25.814;2023-03-23T14:31:05;28.73;;;20.88;;
59649;SDS011;46162;57.568;25.814;2023-03-23T14:33:44;26.23;;;18.75;;
59649;SDS011;46162;57.568;25.814;2023-03-23T14:36:13;28.55;;;17.67;;
59649;SDS011;46162;57.568;25.814;2023-03-23T14:38:40;26.77;;;19.42;;
59649;SDS011;46162;57.568;25.814;2023-03-23T14:41:10;27.13;;;17.90;;
59649;SDS011;46162;57.568;25.814;2023-03-23T14:43:38;24.05;;;16.25;;
59649;SDS011;46162;57.568;25.814;2023-03-23T14:46:06;20.83;;;16.25;;
59649;SDS011;46162;57.568;25.814;2023-03-23T14:48:37;20.23;;;15.07;;
59649;SDS011;46162;57.568;25.814;2023-03-23T14:51:07;21.45;;;14.90;;
59649;SDS011;46162;57.568;25.814;2023-03-23T14:53:44;19.77;;;14.32;;
59649;SDS011;46162;57.568;25.814;2023-03-23T14:56:14;20.40;;;14.65;;
59649;SDS011;46162;57.568;25.814;2023-03-23T14:58:46;18.90;;;13.05;;
59649;SDS011;46162;57.568;25.814;2023-03-23T15:01:15;17.02;;;12.07;;
59649;SDS011;46162;57.568;25.814;2023-03-23T15:03:48;16.02;;;12.18;;
59649;SDS011;46162;57.568;25.814;2023-03-23T15:06:21;15.30;;;11.57;;
59649;SDS011;46162;57.568;25.814;2023-03-23T15:08:50;18.42;;;12.88;;
59649;SDS011;46162;57.568;25.814;2023-03-23T15:13:52;15.40;;;10.93;;
59649;SDS011;46162;57.568;25.814;2023-03-23T15:16:23;16.10;;;12.40;;
59649;SDS011;46162;57.568;25.814;2023-03-23T15:18:53;16.63;;;11.55;;
59649;SDS011;46162;57.568;25.814;2023-03-23T15:21:26;17.42;;;11.75;;
59649;SDS011;46162;57.568;25.814;2023-03-23T15:23:55;18.13;;;11.75;;
59649;SDS011;46162;57.568;25.814;2023-03-23T15:26:24;16.10;;;11.40;;
59649;SDS011;46162;57.568;25.814;2023-03-23T15:29:11;16.33;;;11.68;;
59649;SDS011;46162;57.568;25.814;2023-03-23T15:31:43;16.23;;;10.27;;